Time;durP1;ratioP1;P1;durP2;ratioP2;P2;SDS_P1;SDS_P2;PMS_P1;PMS_P2;Temp;Humidity;BMP_temperature;BMP_pressure;BME280_temperature;BME280_humidity;BME280_pressure;Samples;Min_cycle;Max_cycle;Signal;HPM_P1;HPM_P2
2021/10/08 00:01:44;;;;;;;233.60;23.10;;;14.90;90.00;;;;;;5048882;28;20078;-71
2021/10/08 00:04:10;;;;;;;226.77;21.52;;;14.40;89.80;;;;;;5059471;28;20052;-71
2021/10/08 00:06:36;;;;;;;234.90;20.15;;;13.70;90.40;;;;;;5041629;28;20043;-71
2021/10/08 00:09:01;;;;;;;273.45;22.25;;;12.80;91.20;;;;;;5042129;28;20118;-71
2021/10/08 00:11:27;;;;;;;49.72;16.73;;;12.40;92.00;;;;;;5059996;28;20043;-71
2021/10/08 00:13:53;;;;;;;108.50;17.42;;;12.10;92.80;;;;;;5058536;28;20549;-72
2021/10/08 00:16:19;;;;;;;22.05;16.05;;;11.90;93.70;;;;;;5044108;28;20055;-72
2021/10/08 00:18:45;;;;;;;22.92;15.55;;;12.20;94.60;;;;;;5076743;28;20402;-71
2021/10/08 00:21:11;;;;;;;18.17;14.60;;;12.80;95.10;;;;;;5058253;28;20040;-71
2021/10/08 00:23:37;;;;;;;20.52;15.10;;;13.40;94.80;;;;;;5058720;28;20036;-71
2021/10/08 00:26:03;;;;;;;18.83;14.18;;;13.90;94.20;;;;;;5058383;28;20465;-72
2021/10/08 00:28:29;;;;;;;19.40;14.93;;;14.40;93.60;;;;;;5047983;28;20390;-71
2021/10/08 00:30:55;;;;;;;19.92;14.02;;;14.70;92.90;;;;;;5058499;28;20047;-71
2021/10/08 00:33:20;;;;;;;19.92;14.38;;;14.90;92.40;;;;;;5043460;28;20040;-71
2021/10/08 00:35:46;;;;;;;16.35;13.60;;;15.10;92.20;;;;;;5056865;28;20044;-72
2021/10/08 00:38:12;;;;;;;14.80;11.95;;;15.30;91.90;;;;;;5060171;28;20037;-72
2021/10/08 00:40:41;;;;;;;16.65;13.80;;;15.40;91.60;;;;;;5047334;28;20035;-71
2021/10/08 00:43:08;;;;;;;16.75;13.98;;;15.60;91.30;;;;;;5058824;28;20036;-71
2021/10/08 00:45:34;;;;;;;15.05;11.95;;;15.90;91.00;;;;;;5052605;28;20071;-70
2021/10/08 00:48:04;;;;;;;15.63;12.60;;;16.00;90.70;;;;;;5057851;28;20090;-69
2021/10/08 00:50:34;;;;;;;14.35;12.10;;;16.10;90.40;;;;;;5040943;28;20037;-69
2021/10/08 00:53:00;;;;;;;14.95;12.35;;;16.20;90.10;;;;;;5077154;28;20391;-71
2021/10/08 00:55:26;;;;;;;14.32;11.43;;;16.30;89.80;;;;;;5059904;28;20045;-71
2021/10/08 00:57:51;;;;;;;12.48;10.90;;;16.30;89.20;;;;;;5079377;28;20415;-71
2021/10/08 01:00:18;;;;;;;12.98;10.45;;;16.20;89.20;;;;;;5062036;28;20119;-71
2021/10/08 01:02:44;;;;;;;11.70;10.45;;;16.20;89.10;;;;;;5061598;28;20497;-69
2021/10/08 01:05:11;;;;;;;12.27;10.70;;;16.20;88.80;;;;;;5062455;28;22243;-70
2021/10/08 01:07:38;;;;;;;12.35;10.25;;;16.20;88.30;;;;;;5061233;28;20487;-69
2021/10/08 01:10:06;;;;;;;12.32;10.20;;;16.00;88.10;;;;;;5080084;28;20578;-71
2021/10/08 01:12:33;;;;;;;13.65;11.07;;;15.90;88.90;;;;;;5045824;28;20040;-70
2021/10/08 01:14:58;;;;;;;12.23;10.35;;;15.90;89.30;;;;;;5061700;28;20040;-69
2021/10/08 01:17:24;;;;;;;58.60;10.60;;;16.00;88.90;;;;;;5060572;28;20782;-69
2021/10/08 01:19:50;;;;;;;11.90;9.68;;;15.90;87.50;;;;;;5044750;28;20037;-70
2021/10/08 01:22:16;;;;;;;11.48;9.43;;;15.60;87.70;;;;;;5060676;28;20036;-71
2021/10/08 01:24:42;;;;;;;10.93;9.07;;;15.50;89.40;;;;;;5061108;28;20086;-70
2021/10/08 01:27:09;;;;;;;11.75;9.32;;;15.60;90.00;;;;;;5044592;28;20163;-71
2021/10/08 01:29:48;;;;;;;12.65;9.38;;;15.70;90.10;;;;;;5059831;28;20040;-69
2021/10/08 01:32:14;;;;;;;11.45;9.38;;;15.80;90.00;;;;;;5061010;28;20056;-69
2021/10/08 01:34:39;;;;;;;11.60;9.75;;;15.80;89.70;;;;;;5046406;28;20163;-70
2021/10/08 01:37:05;;;;;;;30.92;8.15;;;15.90;89.40;;;;;;5059510;28;20040;-71
2021/10/08 01:39:31;;;;;;;10.50;8.88;;;16.00;87.20;;;;;;5060412;28;20044;-71
2021/10/08 01:41:56;;;;;;;11.50;8.57;;;16.00;87.50;;;;;;5060676;28;20376;-70
2021/10/08 01:44:22;;;;;;;17.75;8.15;;;16.00;87.90;;;;;;5062088;28;20055;-71
2021/10/08 01:46:51;;;;;;;64.78;9.23;;;15.90;87.30;;;;;;5060989;28;20058;-69
2021/10/08 01:49:17;;;;;;;9.40;8.20;;;15.50;85.20;;;;;;5059656;28;20036;-69
2021/10/08 01:51:42;;;;;;;21.25;8.68;;;15.10;87.90;;;;;;5061775;28;20552;-68
2021/10/08 01:54:09;;;;;;;94.93;8.60;;;15.00;88.00;;;;;;5061752;28;20102;-69
2021/10/08 01:56:36;;;;;;;10.82;8.10;;;14.50;85.80;;;;;;5060325;28;20041;-69
2021/10/08 01:59:02;;;;;;;10.27;8.60;;;14.00;88.20;;;;;;5078711;28;20106;-68
2021/10/08 02:01:28;;;;;;;9.50;8.30;;;13.90;90.80;;;;;;5044131;28;20122;-68
2021/10/08 02:03:53;;;;;;;10.38;8.38;;;14.10;91.20;;;;;;5043492;28;20151;-70
2021/10/08 02:06:19;;;;;;;9.98;7.90;;;14.40;91.20;;;;;;5061520;28;20131;-69
2021/10/08 02:08:45;;;;;;;9.60;8.00;;;14.80;91.00;;;;;;5058827;28;20460;-69
2021/10/08 02:11:11;;;;;;;11.90;7.90;;;15.10;90.50;;;;;;5061348;28;20109;-69
2021/10/08 02:13:37;;;;;;;9.23;8.15;;;15.40;90.00;;;;;;5043685;28;20118;-71
2021/10/08 02:16:03;;;;;;;9.90;7.55;;;15.60;89.20;;;;;;5060347;28;20434;-71
2021/10/08 02:18:29;;;;;;;9.00;7.55;;;15.80;88.60;;;;;;5063279;28;20044;-70
2021/10/08 02:20:56;;;;;;;10.63;7.28;;;15.90;88.20;;;;;;5059799;28;20032;-71
2021/10/08 02:23:21;;;;;;;10.35;8.05;;;16.00;87.70;;;;;;5060076;28;20068;-71
2021/10/08 02:25:47;;;;;;;9.00;7.80;;;16.10;87.10;;;;;;5060123;28;20463;-71
2021/10/08 02:28:13;;;;;;;12.00;7.55;;;16.20;86.70;;;;;;5059274;28;20044;-70
2021/10/08 02:30:39;;;;;;;8.23;7.05;;;16.30;86.30;;;;;;5043626;28;20113;-69
2021/10/08 02:33:05;;;;;;;7.32;6.55;;;16.30;85.90;;;;;;5043841;28;20051;-69
2021/10/08 02:35:31;;;;;;;8.32;7.03;;;16.30;85.70;;;;;;5060481;28;20056;-69
2021/10/08 02:37:57;;;;;;;8.55;6.82;;;16.30;85.60;;;;;;5042850;28;20040;-71
2021/10/08 02:40:23;;;;;;;7.72;6.25;;;16.40;85.80;;;;;;5059306;28;20036;-71
2021/10/08 02:42:49;;;;;;;7.90;6.43;;;16.40;85.80;;;;;;5059249;28;20029;-70
2021/10/08 02:45:15;;;;;;;8.63;6.55;;;16.40;86.00;;;;;;5043301;28;20443;-68
2021/10/08 02:47:42;;;;;;;8.55;6.07;;;16.40;85.00;;;;;;5043147;28;20035;-70
2021/10/08 02:50:08;;;;;;;7.38;6.03;;;16.40;84.60;;;;;;5059786;28;20094;-70
2021/10/08 02:52:34;;;;;;;8.90;5.95;;;16.40;84.40;;;;;;5059717;28;20036;-70
2021/10/08 02:55:00;;;;;;;6.93;5.80;;;16.50;84.20;;;;;;5077914;28;20094;-69
2021/10/08 02:57:26;;;;;;;6.43;5.57;;;16.40;84.20;;;;;;5049641;28;20047;-69
2021/10/08 02:59:51;;;;;;;6.78;5.63;;;16.40;84.20;;;;;;5058582;28;20127;-69
2021/10/08 03:02:17;;;;;;;6.32;5.03;;;16.30;84.10;;;;;;5047307;28;20047;-69
2021/10/08 03:04:43;;;;;;;6.57;5.68;;;16.30;84.40;;;;;;5060543;28;20925;-70
2021/10/08 03:07:09;;;;;;;7.30;5.82;;;16.40;84.20;;;;;;5059190;28;20027;-70
2021/10/08 03:09:35;;;;;;;8.18;5.15;;;16.30;83.70;;;;;;5059056;28;20048;-69
2021/10/08 03:12:01;;;;;;;7.65;5.65;;;16.30;83.70;;;;;;5059213;28;20364;-70
2021/10/08 03:14:27;;;;;;;5.93;5.00;;;16.30;83.60;;;;;;5060634;28;20040;-69
2021/10/08 03:16:53;;;;;;;6.72;5.13;;;16.30;83.80;;;;;;5046894;28;20142;-69
2021/10/08 03:19:19;;;;;;;6.80;5.75;;;16.30;83.80;;;;;;5048187;28;20036;-70
2021/10/08 03:21:45;;;;;;;7.00;4.78;;;16.30;83.60;;;;;;5076449;28;20050;-69
2021/10/08 03:24:11;;;;;;;5.18;4.43;;;16.30;83.30;;;;;;5058836;28;20040;-70
2021/10/08 03:26:38;;;;;;;6.63;5.32;;;16.30;83.20;;;;;;5059094;28;20114;-70
2021/10/08 03:29:03;;;;;;;5.55;4.50;;;16.20;83.00;;;;;;5056933;28;20048;-69
2021/10/08 03:31:29;;;;;;;4.93;4.30;;;16.10;83.20;;;;;;5042962;28;20568;-70
2021/10/08 03:33:55;;;;;;;6.03;4.90;;;16.00;83.20;;;;;;5043052;28;20047;-70
2021/10/08 03:36:43;;;;;;;4.97;4.38;;;15.90;83.60;;;;;;5058945;28;20086;-71
2021/10/08 03:39:10;;;;;;;5.45;4.90;;;16.00;83.70;;;;;;5058494;28;20040;-70
2021/10/08 03:41:38;;;;;;;8.88;4.97;;;16.00;83.60;;;;;;5041753;28;20049;-71
2021/10/08 03:44:04;;;;;;;5.53;4.88;;;15.90;83.50;;;;;;5010126;28;20047;-70
2021/10/08 03:46:37;;;;;;;5.50;4.55;;;15.60;83.40;;;;;;5059015;28;20383;-70
2021/10/08 03:51:34;;;;;;;7.30;4.72;;;15.60;84.60;;;;;;5059561;28;20052;-70
2021/10/08 03:54:01;;;;;;;6.47;4.65;;;15.70;84.00;;;;;;5059427;28;20433;-70
2021/10/08 03:56:27;;;;;;;6.38;4.82;;;15.80;83.90;;;;;;5058934;28;20036;-70
2021/10/08 03:58:55;;;;;;;6.30;4.45;;;15.70;84.00;;;;;;5058248;28;20703;-70
2021/10/08 04:01:21;;;;;;;5.80;4.35;;;15.80;84.10;;;;;;5041584;28;20084;-69
2021/10/08 04:03:47;;;;;;;5.25;4.32;;;15.80;84.00;;;;;;5057293;28;20053;-70
2021/10/08 04:06:13;;;;;;;5.60;5.03;;;15.80;84.10;;;;;;5042296;28;20433;-65
2021/10/08 04:08:39;;;;;;;5.93;5.28;;;15.70;81.40;;;;;;5059068;28;20028;-66
2021/10/08 04:11:05;;;;;;;5.70;5.15;;;15.40;78.10;;;;;;5058033;28;20032;-65
2021/10/08 04:13:30;;;;;;;5.05;4.55;;;14.80;77.70;;;;;;5058024;28;20556;-64
2021/10/08 04:15:56;;;;;;;5.30;4.80;;;14.30;78.60;;;;;;5060543;28;20040;-65
2021/10/08 04:18:22;;;;;;;6.03;5.22;;;13.80;79.00;;;;;;5057340;28;20040;-64
2021/10/08 04:20:48;;;;;;;4.70;4.30;;;13.40;79.70;;;;;;5058445;28;20707;-64
2021/10/08 04:23:15;;;;;;;4.47;4.07;;;13.20;81.30;;;;;;5058398;28;20052;-64
2021/10/08 04:25:41;;;;;;;4.38;3.97;;;12.90;82.50;;;;;;5058999;28;20101;-64
2021/10/08 04:28:07;;;;;;;6.82;5.50;;;12.70;82.80;;;;;;5059074;28;20194;-65
2021/10/08 04:30:33;;;;;;;7.13;4.95;;;12.50;82.90;;;;;;5043310;28;20041;-65
2021/10/08 04:32:58;;;;;;;5.88;5.22;;;12.30;83.10;;;;;;5062720;28;20510;-65
2021/10/08 04:35:24;;;;;;;6.43;5.00;;;12.00;83.20;;;;;;5068726;28;20048;-66
2021/10/08 04:37:50;;;;;;;8.88;7.50;;;11.80;83.60;;;;;;5062833;28;20039;-65
2021/10/08 04:40:16;;;;;;;14.43;9.25;;;11.60;85.10;;;;;;5080042;28;20043;-65
2021/10/08 04:42:42;;;;;;;8.30;7.28;;;11.40;86.50;;;;;;5062228;28;20980;-66
2021/10/08 04:45:08;;;;;;;8.10;5.88;;;11.20;87.30;;;;;;5068545;28;20040;-67
2021/10/08 04:47:34;;;;;;;8.07;6.57;;;11.00;88.10;;;;;;5046257;28;20037;-65
2021/10/08 04:49:59;;;;;;;7.43;6.65;;;10.90;89.20;;;;;;5061861;28;20047;-66
2021/10/08 04:52:25;;;;;;;6.97;6.25;;;10.80;90.00;;;;;;5061415;28;20044;-66
2021/10/08 04:54:51;;;;;;;7.32;6.50;;;10.70;90.30;;;;;;5062960;28;20391;-64
2021/10/08 04:57:17;;;;;;;7.10;6.18;;;10.70;90.40;;;;;;5047300;28;20365;-65
2021/10/08 04:59:43;;;;;;;8.52;6.38;;;10.70;90.80;;;;;;5078734;28;20040;-65
2021/10/08 05:02:09;;;;;;;7.60;6.47;;;10.70;91.00;;;;;;5061754;28;20437;-66
2021/10/08 05:04:34;;;;;;;12.77;8.55;;;10.70;90.90;;;;;;5025089;28;20053;-65
2021/10/08 05:07:00;;;;;;;16.80;14.50;;;10.60;90.60;;;;;;5061298;28;20055;-66
2021/10/08 05:09:26;;;;;;;24.20;17.63;;;10.40;90.60;;;;;;5026364;28;20106;-66
2021/10/08 05:11:52;;;;;;;24.80;18.35;;;10.30;91.30;;;;;;5040858;28;20065;-66
2021/10/08 05:14:18;;;;;;;31.70;20.40;;;10.10;91.70;;;;;;5059189;28;20037;-65
2021/10/08 05:16:44;;;;;;;23.77;17.42;;;9.90;92.30;;;;;;5061266;28;20499;-65
2021/10/08 05:19:10;;;;;;;27.92;18.95;;;9.80;92.80;;;;;;5034981;28;20048;-66
2021/10/08 05:21:36;;;;;;;22.75;16.25;;;9.60;93.20;;;;;;5041650;28;20040;-66
2021/10/08 05:24:01;;;;;;;26.05;19.50;;;9.50;93.60;;;;;;5042874;28;20041;-63
2021/10/08 05:26:27;;;;;;;24.88;17.92;;;9.40;93.80;;;;;;5041625;28;20055;-65
2021/10/08 05:28:53;;;;;;;26.40;18.33;;;9.40;94.10;;;;;;5042341;28;20043;-63
2021/10/08 05:31:18;;;;;;;31.50;21.65;;;9.40;94.30;;;;;;5034997;28;20052;-64
2021/10/08 05:33:44;;;;;;;29.67;20.13;;;9.40;94.40;;;;;;5042111;28;20045;-67
2021/10/08 05:36:10;;;;;;;32.70;21.73;;;9.30;94.80;;;;;;5042153;28;20044;-66
2021/10/08 05:38:36;;;;;;;32.78;22.20;;;9.20;95.00;;;;;;5041911;28;20635;-64
2021/10/08 05:41:03;;;;;;;35.08;22.05;;;9.20;95.30;;;;;;5040521;28;20044;-65
2021/10/08 05:43:29;;;;;;;39.13;24.63;;;9.20;95.50;;;;;;5041217;28;20574;-65
2021/10/08 05:45:54;;;;;;;39.55;23.25;;;9.20;95.80;;;;;;5058914;28;20065;-64
2021/10/08 05:48:20;;;;;;;41.83;25.73;;;9.10;95.90;;;;;;5025095;28;20040;-64
2021/10/08 05:50:46;;;;;;;45.33;26.55;;;9.10;96.10;;;;;;5058607;28;20101;-65
2021/10/08 05:53:12;;;;;;;37.72;22.70;;;9.10;96.20;;;;;;5041081;28;20055;-65
2021/10/08 05:55:38;;;;;;;43.72;27.65;;;9.10;96.40;;;;;;5030582;28;20074;-66
2021/10/08 05:58:06;;;;;;;49.60;28.98;;;9.20;96.50;;;;;;5042776;28;20028;-66
2021/10/08 06:00:33;;;;;;;39.47;25.58;;;9.20;96.60;;;;;;5039440;28;20048;-65
2021/10/08 06:03:00;;;;;;;35.88;20.15;;;9.20;96.70;;;;;;5063104;28;20048;-65
2021/10/08 06:05:26;;;;;;;28.02;19.23;;;9.20;96.70;;;;;;5060089;28;20044;-65
2021/10/08 06:07:52;;;;;;;32.03;20.50;;;9.20;96.70;;;;;;5060618;28;20409;-65
2021/10/08 06:10:18;;;;;;;18.25;13.02;;;9.20;96.60;;;;;;5059868;28;20133;-66
2021/10/08 06:12:43;;;;;;;18.00;12.52;;;9.30;96.50;;;;;;5059905;28;20037;-65
2021/10/08 06:15:09;;;;;;;25.23;16.13;;;9.40;96.60;;;;;;5061030;28;20043;-66
2021/10/08 06:17:35;;;;;;;33.47;20.05;;;9.50;96.50;;;;;;5045544;28;21007;-65
2021/10/08 06:20:01;;;;;;;25.50;17.88;;;9.60;96.40;;;;;;5059837;28;20039;-64
2021/10/08 06:22:27;;;;;;;17.35;13.23;;;9.60;96.30;;;;;;5076913;28;20028;-64
2021/10/08 06:24:53;;;;;;;20.48;14.57;;;9.70;96.20;;;;;;5077332;28;20036;-64
2021/10/08 06:27:18;;;;;;;25.05;18.10;;;9.70;96.00;;;;;;5059868;28;20047;-64
2021/10/08 06:29:44;;;;;;;22.83;15.30;;;9.80;96.00;;;;;;5060589;28;20040;-64
2021/10/08 06:32:10;;;;;;;46.67;24.20;;;9.90;95.80;;;;;;5076493;28;20040;-64
2021/10/08 06:34:35;;;;;;;35.63;22.73;;;9.90;95.80;;;;;;5077626;28;20036;-63
2021/10/08 06:37:01;;;;;;;36.03;22.45;;;9.90;96.10;;;;;;5060398;28;20580;-64
2021/10/08 06:39:27;;;;;;;35.75;21.75;;;9.90;96.20;;;;;;5076391;28;20036;-65
2021/10/08 06:41:53;;;;;;;33.92;20.65;;;9.90;96.40;;;;;;5058385;28;20101;-65
2021/10/08 06:44:18;;;;;;;40.25;23.92;;;9.80;96.50;;;;;;5059131;28;20044;-65
2021/10/08 06:46:44;;;;;;;32.22;21.50;;;9.80;96.50;;;;;;5058120;28;20419;-65
2021/10/08 06:49:10;;;;;;;41.72;22.58;;;9.80;96.60;;;;;;5077245;28;20067;-65
2021/10/08 06:51:37;;;;;;;35.38;21.13;;;9.80;96.60;;;;;;5057552;28;20463;-65
2021/10/08 06:54:03;;;;;;;37.60;19.88;;;9.70;96.50;;;;;;5077245;28;20499;-65
2021/10/08 06:56:30;;;;;;;39.38;21.15;;;9.70;96.60;;;;;;5078149;28;20491;-65
2021/10/08 06:58:56;;;;;;;32.60;19.52;;;9.60;96.60;;;;;;5059061;28;20052;-65
2021/10/08 07:01:22;;;;;;;27.20;17.83;;;9.50;96.60;;;;;;5048012;28;20031;-65
2021/10/08 07:03:48;;;;;;;26.42;17.48;;;9.60;96.70;;;;;;5058618;28;20047;-64
2021/10/08 07:06:14;;;;;;;25.13;17.65;;;9.50;96.70;;;;;;5076786;28;20491;-64
2021/10/08 07:08:41;;;;;;;27.77;18.17;;;9.60;96.70;;;;;;5076930;28;20036;-64
2021/10/08 07:11:07;;;;;;;23.42;15.05;;;9.80;96.80;;;;;;5042170;28;20098;-65
2021/10/08 07:13:33;;;;;;;21.70;15.48;;;9.90;96.70;;;;;;5058541;28;20395;-64
2021/10/08 07:15:59;;;;;;;20.30;14.75;;;10.00;96.70;;;;;;5078182;28;20131;-65
2021/10/08 07:18:33;;;;;;;15.55;12.70;;;10.10;96.50;;;;;;5060519;28;20040;-64
2021/10/08 07:21:03;;;;;;;16.77;13.63;;;10.30;96.50;;;;;;5058206;28;20032;-65
2021/10/08 07:23:29;;;;;;;17.38;13.68;;;10.60;96.40;;;;;;5041201;28;20487;-65
2021/10/08 07:25:55;;;;;;;12.15;8.95;;;10.90;96.00;;;;;;5058388;28;20050;-68
2021/10/08 07:28:20;;;;;;;12.73;8.77;;;11.20;95.70;;;;;;5058956;28;20040;-67
2021/10/08 07:30:47;;;;;;;9.82;8.50;;;11.80;96.10;;;;;;5059039;28;20062;-67
2021/10/08 07:33:13;;;;;;;11.43;7.57;;;12.40;95.80;;;;;;5042260;28;20072;-67
2021/10/08 07:35:39;;;;;;;14.45;9.48;;;13.00;95.30;;;;;;5075485;28;20537;-67
2021/10/08 07:38:05;;;;;;;9.40;7.82;;;13.50;94.40;;;;;;5055669;28;20170;-76
2021/10/08 07:40:31;;;;;;;13.30;9.32;;;14.10;93.70;;;;;;5078281;28;20032;-71
2021/10/08 07:42:57;;;;;;;11.15;7.40;;;14.50;92.80;;;;;;5058983;28;20116;-68
2021/10/08 07:45:23;;;;;;;13.18;7.47;;;14.80;92.40;;;;;;5025925;28;20044;-64
2021/10/08 07:47:49;;;;;;;10.63;9.20;;;15.20;91.90;;;;;;5058317;28;20032;-68
2021/10/08 07:50:14;;;;;;;13.50;8.93;;;15.40;91.00;;;;;;5058724;28;20044;-65
2021/10/08 07:52:42;;;;;;;12.25;8.93;;;15.40;90.40;;;;;;5058959;28;20085;-65
2021/10/08 07:55:10;;;;;;;14.40;11.30;;;15.50;90.40;;;;;;5057876;28;20228;-65
2021/10/08 07:57:37;;;;;;;14.25;10.75;;;15.60;89.90;;;;;;5058988;28;20068;-64
2021/10/08 08:00:05;;;;;;;12.43;8.38;;;15.70;88.80;;;;;;5058183;28;20036;-66
2021/10/08 08:02:31;;;;;;;13.65;10.82;;;15.90;88.70;;;;;;5058338;28;20432;-68
2021/10/08 08:04:57;;;;;;;13.13;11.20;;;16.10;88.00;;;;;;5080877;28;20050;-67
2021/10/08 08:07:24;;;;;;;12.23;10.30;;;16.40;87.30;;;;;;5082216;28;20040;-67
2021/10/08 08:09:50;;;;;;;14.85;10.30;;;16.50;86.60;;;;;;5061723;28;20040;-67
2021/10/08 08:12:16;;;;;;;16.42;11.93;;;16.50;86.10;;;;;;5061636;28;20109;-67
2021/10/08 08:14:42;;;;;;;17.35;14.50;;;16.40;86.10;;;;;;5064092;28;20074;-73
2021/10/08 08:17:07;;;;;;;15.95;13.70;;;16.20;86.10;;;;;;5046490;28;20071;-71
2021/10/08 08:19:33;;;;;;;17.15;14.38;;;16.10;86.50;;;;;;5051671;28;20040;-72
2021/10/08 08:21:59;;;;;;;21.50;15.90;;;16.10;86.70;;;;;;5034273;28;20068;-73
2021/10/08 08:24:25;;;;;;;18.77;13.93;;;16.10;86.80;;;;;;5063570;28;20052;-71
2021/10/08 08:26:50;;;;;;;17.15;14.57;;;16.00;87.00;;;;;;5044425;28;20040;-72
2021/10/08 08:29:16;;;;;;;18.25;16.25;;;15.90;87.20;;;;;;5045043;28;20044;-72
2021/10/08 08:31:42;;;;;;;18.30;14.20;;;15.90;87.20;;;;;;5044866;28;20449;-72
2021/10/08 08:34:08;;;;;;;16.45;13.35;;;15.90;87.40;;;;;;5045971;28;20040;-71
2021/10/08 08:36:34;;;;;;;20.15;16.17;;;15.90;87.60;;;;;;5061689;28;20070;-71
2021/10/08 08:39:04;;;;;;;18.70;15.60;;;15.90;87.90;;;;;;5060892;28;20459;-72
2021/10/08 08:41:31;;;;;;;19.45;16.83;;;15.90;88.20;;;;;;5062899;28;20036;-70
2021/10/08 08:43:57;;;;;;;23.02;16.95;;;15.80;87.60;;;;;;5063902;28;20066;-71
2021/10/08 08:46:23;;;;;;;23.48;17.17;;;15.60;87.80;;;;;;5061217;28;20412;-71
2021/10/08 08:48:49;;;;;;;22.92;18.55;;;15.50;88.50;;;;;;5045059;28;20064;-71
2021/10/08 08:51:16;;;;;;;21.02;16.98;;;15.40;89.00;;;;;;5060087;28;20048;-72
2021/10/08 08:53:43;;;;;;;21.10;17.27;;;15.40;89.10;;;;;;5046358;28;20121;-70
2021/10/08 08:56:09;;;;;;;18.08;15.07;;;15.40;89.70;;;;;;5061806;28;20046;-71
2021/10/08 08:58:35;;;;;;;19.95;16.75;;;15.60;89.80;;;;;;5067470;28;20044;-71
2021/10/08 09:01:03;;;;;;;19.30;16.13;;;15.70;89.80;;;;;;5061772;28;20407;-72
2021/10/08 09:03:30;;;;;;;20.55;16.83;;;15.70;89.20;;;;;;5045828;28;20045;-69
2021/10/08 09:05:55;;;;;;;18.73;15.13;;;15.70;89.00;;;;;;5042293;28;20204;-71
2021/10/08 09:08:32;;;;;;;23.10;17.67;;;15.70;88.60;;;;;;5043745;28;20488;-71
2021/10/08 09:10:59;;;;;;;21.35;17.42;;;15.80;88.90;;;;;;5044337;28;20400;-71
2021/10/08 09:13:27;;;;;;;20.55;15.57;;;15.70;89.10;;;;;;5040736;28;20040;-71
2021/10/08 09:16:03;;;;;;;26.48;18.25;;;15.80;89.80;;;;;;5041647;28;20051;-72
2021/10/08 09:18:33;;;;;;;24.30;16.95;;;15.80;89.60;;;;;;5043558;28;20392;-71
2021/10/08 09:21:21;;;;;;;23.40;19.27;;;15.80;89.30;;;;;;5042202;28;20086;-71
2021/10/08 09:23:48;;;;;;;22.23;17.95;;;15.80;89.10;;;;;;5041079;28;20041;-70
2021/10/08 09:26:14;;;;;;;21.20;18.35;;;15.80;89.60;;;;;;5026606;28;20048;-69
2021/10/08 09:29:00;;;;;;;23.08;18.02;;;15.80;89.30;;;;;;5034394;28;20510;-69
2021/10/08 09:31:46;;;;;;;22.00;17.30;;;15.70;89.50;;;;;;5041962;28;20048;-78
2021/10/08 09:34:18;;;;;;;20.73;15.93;;;15.70;89.80;;;;;;5045696;28;20088;-77
2021/10/08 09:36:50;;;;;;;21.38;16.65;;;15.70;89.30;;;;;;5046194;28;20088;-81
2021/10/08 09:39:32;;;;;;;22.73;15.40;;;15.70;89.70;;;;;;5046308;28;20036;-80
2021/10/08 09:42:11;;;;;;;22.25;16.55;;;15.80;89.90;;;;;;5048222;28;20040;-81
2021/10/08 09:44:54;;;;;;;23.20;16.92;;;15.80;89.90;;;;;;5045414;28;20616;-80
2021/10/08 09:47:21;;;;;;;78.32;50.88;;;16.00;89.80;;;;;;5047696;28;20036;-77
2021/10/08 09:49:52;;;;;;;17.02;14.88;;;16.00;88.80;;;;;;5028566;28;20044;-79
2021/10/08 09:52:31;;;;;;;21.23;14.13;;;16.00;88.60;;;;;;5062651;28;20389;-79
2021/10/08 09:55:03;;;;;;;17.55;13.55;;;16.10;88.80;;;;;;5046485;28;20051;-78
2021/10/08 09:57:49;;;;;;;13.25;10.85;;;16.20;88.00;;;;;;5028856;28;20052;-78
2021/10/08 10:00:34;;;;;;;12.95;10.73;;;16.20;86.40;;;;;;5049066;28;20491;-78
2021/10/08 10:03:01;;;;;;;12.77;10.68;;;16.10;87.00;;;;;;5053950;28;20628;-79
2021/10/08 10:05:28;;;;;;;16.30;10.27;;;16.10;86.10;;;;;;5054456;28;20044;-78
2021/10/08 10:07:57;;;;;;;20.00;11.48;;;16.20;86.10;;;;;;5091592;28;20059;-78
2021/10/08 10:10:24;;;;;;;15.75;11.70;;;16.20;86.40;;;;;;5070660;28;20037;-78
2021/10/08 10:12:50;;;;;;;16.30;11.32;;;16.30;86.30;;;;;;5069773;28;20241;-77
2021/10/08 10:15:18;;;;;;;17.58;10.77;;;16.40;86.50;;;;;;5069645;28;20120;-78
2021/10/08 10:17:44;;;;;;;13.88;10.00;;;16.50;86.30;;;;;;5049702;28;20078;-79
2021/10/08 10:20:12;;;;;;;11.52;9.90;;;16.60;86.20;;;;;;5071338;28;20043;-80
2021/10/08 10:22:38;;;;;;;11.68;9.95;;;16.80;84.70;;;;;;5068845;28;20152;-81
2021/10/08 10:25:06;;;;;;;14.57;10.90;;;16.80;83.90;;;;;;5067027;28;20501;-81
2021/10/08 10:27:31;;;;;;;13.40;10.13;;;16.70;84.00;;;;;;5053075;28;20928;-72
2021/10/08 10:29:58;;;;;;;14.48;10.82;;;16.70;84.60;;;;;;5061785;28;20044;-72
2021/10/08 10:32:24;;;;;;;14.43;12.25;;;16.80;85.00;;;;;;5060776;28;20040;-72
2021/10/08 10:34:50;;;;;;;13.35;11.02;;;17.10;85.90;;;;;;5059949;28;20384;-72
2021/10/08 10:37:41;;;;;;;15.60;11.27;;;17.50;85.80;;;;;;5044279;28;20084;-72
2021/10/08 10:40:17;;;;;;;12.73;11.27;;;18.10;85.10;;;;;;5077639;28;20043;-71
2021/10/08 10:42:43;;;;;;;15.50;12.27;;;18.40;83.80;;;;;;5059209;28;20048;-72
2021/10/08 10:45:19;;;;;;;14.18;10.50;;;18.60;82.90;;;;;;5060519;28;20085;-72
2021/10/08 10:47:47;;;;;;;12.00;10.30;;;18.80;82.10;;;;;;5060086;28;20399;-73
2021/10/08 10:50:38;;;;;;;14.07;12.32;;;19.00;81.50;;;;;;5053240;28;20641;-71
2021/10/08 10:53:04;;;;;;;13.25;11.50;;;19.10;81.50;;;;;;5061282;28;22277;-72
2021/10/08 10:55:34;;;;;;;12.85;11.40;;;19.20;81.30;;;;;;5042398;28;20036;-71
2021/10/08 10:58:05;;;;;;;12.13;10.93;;;19.30;80.90;;;;;;5060238;28;20046;-72
2021/10/08 11:00:41;;;;;;;13.38;11.05;;;19.30;80.50;;;;;;5059817;28;20032;-72
2021/10/08 11:03:32;;;;;;;13.45;12.07;;;19.20;80.10;;;;;;5077387;28;20056;-72
2021/10/08 11:06:07;;;;;;;13.32;10.98;;;19.20;80.20;;;;;;5040803;28;20072;-72
2021/10/08 11:08:32;;;;;;;15.82;11.73;;;19.00;81.30;;;;;;5048690;28;20040;-72
2021/10/08 11:11:01;;;;;;;15.95;12.95;;;18.90;81.40;;;;;;5078473;28;20051;-72
2021/10/08 11:13:30;;;;;;;13.85;11.65;;;18.80;82.10;;;;;;5046609;28;20040;-72
2021/10/08 11:16:07;;;;;;;14.63;11.80;;;18.70;82.50;;;;;;5043121;28;20559;-72
2021/10/08 11:18:39;;;;;;;13.15;11.75;;;18.60;83.10;;;;;;5077995;28;20066;-73
2021/10/08 11:21:06;;;;;;;14.57;11.90;;;18.60;83.30;;;;;;5044021;28;20484;-72
2021/10/08 11:23:36;;;;;;;14.70;11.20;;;18.60;82.90;;;;;;5026116;28;20157;-72
2021/10/08 11:26:08;;;;;;;13.23;11.25;;;18.60;82.70;;;;;;5043918;28;20473;-72
2021/10/08 11:28:39;;;;;;;12.02;10.27;;;18.50;82.90;;;;;;5058055;28;20047;-73
2021/10/08 11:31:08;;;;;;;13.55;11.63;;;18.40;83.10;;;;;;5059402;28;20040;-72
2021/10/08 11:33:49;;;;;;;12.52;11.23;;;18.40;83.30;;;;;;5042869;28;20052;-71
2021/10/08 11:36:26;;;;;;;14.30;11.18;;;18.50;83.80;;;;;;5075773;28;20048;-71
2021/10/08 11:39:12;;;;;;;16.63;13.23;;;18.50;83.50;;;;;;5042056;28;20047;-73
2021/10/08 11:41:38;;;;;;;17.67;12.73;;;18.50;82.80;;;;;;5057288;28;20032;-73
2021/10/08 11:44:11;;;;;;;13.77;11.10;;;18.40;82.90;;;;;;5060912;28;20051;-72
2021/10/08 11:46:53;;;;;;;15.80;11.95;;;18.40;82.60;;;;;;5045743;28;20041;-72
2021/10/08 11:52:01;;;;;;;14.18;12.02;;;18.30;82.40;;;;;;5059785;28;20914;-69
2021/10/08 11:54:27;;;;;;;13.30;11.30;;;18.30;82.40;;;;;;5045674;28;20467;-70
2021/10/08 11:57:04;;;;;;;13.98;12.30;;;18.30;82.70;;;;;;5059948;28;20037;-72
2021/10/08 11:59:32;;;;;;;15.30;12.15;;;18.40;82.30;;;;;;5060000;28;20389;-74
2021/10/08 12:02:09;;;;;;;13.38;11.30;;;18.30;82.10;;;;;;5058337;28;20071;-74
2021/10/08 12:04:35;;;;;;;15.07;12.43;;;18.40;81.30;;;;;;5063232;28;20044;-74
2021/10/08 12:07:10;;;;;;;13.52;11.68;;;18.40;81.30;;;;;;5061152;28;20109;-74
2021/10/08 12:09:37;;;;;;;16.60;12.05;;;18.40;80.90;;;;;;5050791;28;20575;-74
2021/10/08 12:12:11;;;;;;;13.15;11.38;;;18.40;81.40;;;;;;5044770;28;20040;-68
2021/10/08 12:14:47;;;;;;;14.02;12.60;;;18.40;80.80;;;;;;5041613;28;20041;-69
2021/10/08 12:17:13;;;;;;;13.77;11.88;;;18.40;80.20;;;;;;5057955;28;20101;-72
2021/10/08 12:19:40;;;;;;;15.77;12.48;;;18.30;80.10;;;;;;5058102;28;20036;-71
2021/10/08 12:22:06;;;;;;;12.73;10.98;;;18.30;80.20;;;;;;5059361;28;22228;-70
2021/10/08 12:24:34;;;;;;;13.45;12.02;;;18.30;80.30;;;;;;5058490;28;20028;-70
2021/10/08 12:27:05;;;;;;;13.05;11.43;;;18.30;80.20;;;;;;5048375;28;20044;-71
2021/10/08 12:29:42;;;;;;;15.18;13.07;;;18.20;79.80;;;;;;5041703;28;20169;-71
2021/10/08 12:32:15;;;;;;;14.82;13.00;;;18.30;80.50;;;;;;5042767;28;20050;-71
2021/10/08 12:34:47;;;;;;;;;;;18.30;80.40;;;;;;5059178;28;20046;-74
2021/10/08 12:37:30;;;;;;;15.45;11.93;;;18.20;80.00;;;;;;5041817;28;19924;-74
2021/10/08 12:40:12;;;;;;;14.20;11.88;;;18.10;81.00;;;;;;5058804;28;20055;-74
2021/10/08 12:42:43;;;;;;;14.20;12.68;;;18.20;80.30;;;;;;5042586;28;20085;-74